Aérodrome :
LOGIN :

S'inscrire | Disclaimer

   EN    FR    IT 

 










Légende :    VFR   VFR Marginal   IFR   IFR Intensif   IFR Très Intensif
Visi : 
Plafond : 
>= 8 km
>= 3000ft
5 à 8 km
1000 à 3000 ft
1500m à 5 km
500 à 1000 ft
800 à 1500m
200 à 500 ft
< 800m
< 200 ft
Symboles :   Orages  Brouillard  Fortes neiges  Fortes précipitations  Vent > 20 kt
SIGMETs :   Divers  Orages  Givrage  Turbulence  Onde Orograph.  Cendres Volcan.







- Altitude de l'aérodrome : 83 ft
- Code IATA : LHR
- Voir les cartes d'approche


EGLL - London Heathrow

DERNIER METAR :
  • 251450Z AUTO 06004KT 020V080 5000 HZ FEW016 SCT023 OVC047 18/14 Q1020

METARs EXPIRÉS :
  • 251420Z AUTO VRB02KT 6000 FEW014 OVC044 18/14 Q1020 NOSIG
  • 251350Z 05004KT 010V080 6000 -RA BKN044 17/14 Q1020
  • 251320Z 04004KT 6000 -RA OVC041 17/14 Q1020
  • 251250Z AUTO 07005KT 7000 OVC041 17/14 Q1020
  • 251220Z AUTO 06004KT 010V090 7000 OVC044 17/14 Q1020

TAF TAF EGLL
Valide du 25 à 12h jusqu'au 26 à 18h UTC


251052Z 2512/2618 06006KT 7000 SCT030
TEMPO 2512/2518 9999
BECMG 2517/2520 4000 BR
TEMPO 2603/2609 BKN004
PROB30
TEMPO 2603/2608 0500 FG BKN001
BECMG 2609/2612 9999 NSW
TEMPO 2609/2611 BKN009
Pas de NOTAMs connus pour ce terrain.



MET'MAP, la Météo Aéronautique d'un coup d'oeil ! - Copyright ORBIFLY Décembre 2007 - Disclaimer

ORBIFLY MET'MAP TEAM :

Programmation & Développement : Alexandra Zaïnal
Conception & Développement : Baudouin d'Aumeries
Co-Programmation & Développement : Marc-Olivier Méhu
Soutien technique & logistique : Manuel Goepfert

Contact : metmap@orbifly.com




SOURCES & CREDITS :

   NOAA